Time;durP1;ratioP1;P1;durP2;ratioP2;P2;SDS_P1;SDS_P2;PMS_P1;PMS_P2;Temp;Humidity;BMP_temperature;BMP_pressure;BME280_temperature;BME280_humidity;BME280_pressure;Samples;Min_cycle;Max_cycle;Signal;HPM_P1;HPM_P2
2021/06/02 02:47:54;;;;;;;10.25;7.18;;;11.30;99.90;;;;;;5543248;22;89135;-84
2021/06/02 02:50:28;;;;;;;6.23;5.63;;;11.30;99.90;;;;;;4959068;28;87524;-85
2021/06/02 02:53:14;;;;;;;10.95;6.75;;;11.20;99.90;;;;;;4961259;28;86949;-84
2021/06/02 02:55:41;;;;;;;9.25;6.65;;;11.20;99.90;;;;;;4953914;28;88777;-83
2021/06/02 02:58:15;;;;;;;6.68;6.00;;;11.20;99.90;;;;;;4961994;28;87043;-84
2021/06/02 03:01:03;;;;;;;6.72;5.50;;;11.20;99.90;;;;;;4967299;28;86612;-83
2021/06/02 03:03:41;;;;;;;10.88;6.07;;;11.10;99.90;;;;;;4963474;28;86907;-82
2021/06/02 03:06:25;;;;;;;9.18;5.57;;;11.10;99.90;;;;;;4958787;28;87262;-81
2021/06/02 03:09:00;;;;;;;7.32;5.65;;;11.10;99.90;;;;;;4964627;28;87916;-83
2021/06/02 03:11:44;;;;;;;9.70;6.53;;;11.00;99.90;;;;;;4966556;28;86952;-84
2021/06/02 03:14:19;;;;;;;8.63;6.38;;;11.00;99.90;;;;;;4961277;28;86889;-82
2021/06/02 03:16:59;;;;;;;6.63;5.88;;;11.00;99.90;;;;;;4973586;28;88454;-84
2021/06/02 03:19:59;;;;;;;8.27;5.90;;;11.00;99.90;;;;;;4967790;28;88647;-83
2021/06/02 03:22:57;;;;;;;7.43;6.18;;;11.00;99.90;;;;;;4960455;28;86230;-84
2021/06/02 03:25:37;;;;;;;8.43;6.50;;;10.90;99.90;;;;;;4922037;28;86848;-83
2021/06/02 03:28:22;;;;;;;11.65;6.93;;;10.90;99.90;;;;;;4953972;28;87013;-84
2021/06/02 03:31:00;;;;;;;7.38;6.40;;;10.90;99.90;;;;;;4973620;28;86993;-83
2021/06/02 03:33:35;;;;;;;8.77;6.82;;;10.90;99.90;;;;;;4971927;28;87113;-83
2021/06/02 03:36:25;;;;;;;8.40;6.75;;;10.80;99.90;;;;;;4970100;28;85449;-84
2021/06/02 03:39:15;;;;;;;6.97;6.35;;;10.80;99.90;;;;;;4961319;28;87021;-84
2021/06/02 03:41:57;;;;;;;7.75;6.35;;;10.80;99.90;;;;;;4959825;28;87188;-84
2021/06/02 03:44:34;;;;;;;9.25;6.03;;;10.80;99.90;;;;;;4967227;28;88142;-81
2021/06/02 03:47:24;;;;;;;8.95;5.95;;;10.80;99.90;;;;;;4964515;28;86876;-83
2021/06/02 03:50:05;;;;;;;11.45;7.85;;;10.80;99.90;;;;;;4952937;28;87394;-84
2021/06/02 03:52:48;;;;;;;8.70;7.80;;;10.80;99.90;;;;;;4948926;28;87958;-83
2021/06/02 03:55:39;;;;;;;8.50;6.47;;;10.70;99.90;;;;;;4954378;28;86967;-83
2021/06/02 03:58:19;;;;;;;6.90;6.10;;;10.80;99.90;;;;;;4929486;28;86945;-83
2021/06/02 04:01:25;;;;;;;9.57;7.75;;;10.90;99.90;;;;;;4946084;28;88247;-84
2021/06/02 04:04:11;;;;;;;8.82;6.53;;;10.80;99.90;;;;;;4927844;28;88119;-84
2021/06/02 04:06:44;;;;;;;7.45;6.13;;;10.90;99.90;;;;;;4944225;28;86902;-84
2021/06/02 04:09:25;;;;;;;8.80;6.03;;;11.00;99.90;;;;;;4951696;28;87058;-83
2021/06/02 04:12:19;;;;;;;9.65;6.63;;;11.10;99.90;;;;;;4948927;28;87900;-83
2021/06/02 04:14:59;;;;;;;7.22;6.05;;;11.20;99.90;;;;;;4953527;28;87104;-82
2021/06/02 04:17:26;;;;;;;8.40;6.68;;;11.30;99.90;;;;;;4946888;28;87068;-84
2021/06/02 04:19:53;;;;;;;10.35;6.70;;;11.30;99.90;;;;;;4948604;28;87075;-82
2021/06/02 04:22:20;;;;;;;10.07;6.20;;;11.40;99.90;;;;;;4946755;28;87625;-83
2021/06/02 04:24:48;;;;;;;8.98;8.00;;;11.60;99.90;;;;;;4943767;28;86937;-86
2021/06/02 04:27:16;;;;;;;8.48;6.78;;;11.60;99.90;;;;;;4945753;28;87346;-84
2021/06/02 04:29:48;;;;;;;8.93;8.07;;;11.80;99.90;;;;;;4948270;28;86302;-88
2021/06/02 04:32:14;;;;;;;6.18;5.57;;;11.80;99.90;;;;;;4952511;28;86621;-86
2021/06/02 04:34:40;;;;;;;8.70;7.78;;;;;;;;;;4953008;28;87309;-84
2021/06/02 04:37:08;;;;;;;9.48;8.35;;;12.20;99.90;;;;;;4942174;28;88204;-86
2021/06/02 04:39:39;;;;;;;7.47;5.68;;;12.10;99.90;;;;;;4949362;28;87120;-84
2021/06/02 04:42:07;;;;;;;6.78;6.07;;;12.20;99.90;;;;;;4946447;28;88602;-84
2021/06/02 04:44:34;;;;;;;13.63;6.93;;;12.30;99.90;;;;;;4954761;28;86907;-86
2021/06/02 04:47:01;;;;;;;11.13;5.95;;;12.40;99.90;;;;;;4951112;28;86629;-85
2021/06/02 04:49:38;;;;;;;9.00;7.15;;;12.60;99.90;;;;;;4953861;28;87017;-85
2021/06/02 04:52:12;;;;;;;8.18;5.75;;;12.60;99.90;;;;;;4941641;28;92733;-85
2021/06/02 04:55:15;;;;;;;8.80;7.85;;;12.40;99.90;;;;;;4946282;28;92256;-86
2021/06/02 04:58:00;;;;;;;7.80;5.72;;;12.90;99.90;;;;;;4946040;28;91420;-84
2021/06/02 05:00:44;;;;;;;6.20;5.60;;;13.00;99.90;;;;;;4955924;28;92055;-82
2021/06/02 05:03:28;;;;;;;7.03;4.93;;;13.20;99.90;;;;;;4940661;28;93459;-85
2021/06/02 05:05:54;;;;;;;6.45;5.28;;;13.20;99.90;;;;;;4956321;28;92794;-83
2021/06/02 05:08:26;;;;;;;6.25;4.97;;;13.30;99.90;;;;;;4956060;28;91411;-84
2021/06/02 05:11:03;;;;;;;6.30;4.20;;;13.40;99.90;;;;;;4953307;28;91695;-85
2021/06/02 05:13:50;;;;;;;7.68;4.88;;;13.50;99.90;;;;;;4948621;28;93554;-83
2021/06/02 05:16:48;;;;;;;7.45;4.70;;;13.60;99.90;;;;;;4941826;28;91725;-84
2021/06/02 05:22:50;;;;;;;7.70;6.97;;;13.40;99.90;;;;;;4939582;28;91534;-86
2021/06/02 05:25:38;;;;;;;6.10;5.60;;;14.30;99.90;;;;;;4933018;28;93394;-84
2021/06/02 05:28:22;;;;;;;7.70;5.82;;;14.00;99.30;;;;;;4937983;28;92097;-83
2021/06/02 05:31:21;;;;;;;6.35;4.88;;;14.20;98.30;;;;;;4945638;28;92244;-84
2021/06/02 05:34:24;;;;;;;5.82;5.00;;;14.20;99.50;;;;;;4947931;28;91673;-82
2021/06/02 05:37:27;;;;;;;5.32;4.78;;;14.30;98.40;;;;;;4942339;28;92689;-86
2021/06/02 05:40:20;;;;;;;6.57;4.97;;;14.40;97.90;;;;;;4945291;28;91995;-84
2021/06/02 05:43:04;;;;;;;6.50;5.25;;;14.50;97.80;;;;;;4945966;28;92067;-83
2021/06/02 05:45:42;;;;;;;7.50;6.80;;;15.00;99.90;;;;;;4942072;28;92023;-84
2021/06/02 05:48:29;;;;;;;6.47;5.80;;;14.70;97.70;;;;;;4947819;28;92818;-85
2021/06/02 05:51:31;;;;;;;5.80;5.30;;;14.80;95.40;;;;;;4956357;28;92426;-85
2021/06/02 05:54:15;;;;;;;6.85;5.10;;;14.90;95.70;;;;;;4955001;28;91597;-84
2021/06/02 05:57:16;;;;;;;6.55;5.10;;;15.00;95.20;;;;;;4947629;28;92068;-83
2021/06/02 05:59:42;;;;;;;;;;;15.10;95.60;;;;;;4925568;28;94167;-84
2021/06/02 06:02:49;;;;;;;5.93;5.25;;;15.20;94.20;;;;;;4960819;28;92023;-85
2021/06/02 06:05:36;;;;;;;5.57;5.03;;;15.40;95.30;;;;;;4875186;29;91805;-83
2021/06/02 06:08:20;;;;;;;7.85;7.07;;;15.50;94.50;;;;;;4880355;29;92179;-85
2021/06/02 06:10:46;;;;;;;8.63;6.95;;;15.80;94.50;;;;;;4931760;28;92412;-85
2021/06/02 06:13:25;;;;;;;6.22;5.65;;;15.60;92.50;;;;;;4950090;28;92128;-83
2021/06/02 06:16:13;;;;;;;6.22;5.63;;;15.80;91.70;;;;;;4946641;28;91579;-86
2021/06/02 06:18:47;;;;;;;6.20;5.60;;;15.80;91.60;;;;;;4949846;28;91374;-85
2021/06/02 06:21:45;;;;;;;7.20;6.63;;;16.10;94.90;;;;;;4951076;28;91598;-85
2021/06/02 06:24:18;;;;;;;6.95;5.97;;;16.00;91.80;;;;;;4948926;28;92446;-82
2021/06/02 06:26:54;;;;;;;5.88;5.38;;;16.10;92.20;;;;;;4959521;28;92887;-85
2021/06/02 06:29:52;;;;;;;9.68;8.85;;;16.00;91.60;;;;;;4955377;28;91367;-83
2021/06/02 06:32:19;;;;;;;6.97;5.97;;;16.30;91.80;;;;;;4956967;28;92235;-81
2021/06/02 06:34:47;;;;;;;7.30;6.20;;;16.40;90.90;;;;;;4946341;28;91879;-86
2021/06/02 06:37:14;;;;;;;8.98;6.18;;;16.40;90.20;;;;;;4957250;28;91609;-85
2021/06/02 06:39:53;;;;;;;6.90;6.20;;;16.50;90.70;;;;;;4960630;28;91982;-84
2021/06/02 06:42:25;;;;;;;7.93;6.03;;;16.60;89.60;;;;;;4953418;28;92930;-84
2021/06/02 06:45:05;;;;;;;6.80;6.20;;;16.70;90.70;;;;;;4953064;28;92867;-85
2021/06/02 06:47:34;;;;;;;5.77;5.30;;;16.90;89.80;;;;;;4948359;28;92165;-84
2021/06/02 06:50:00;;;;;;;7.30;6.63;;;17.30;87.40;;;;;;4954662;28;91582;-85
2021/06/02 06:52:28;;;;;;;8.93;7.93;;;17.20;83.50;;;;;;4955729;28;93629;-84
2021/06/02 06:54:58;;;;;;;6.78;5.53;;;17.20;83.80;;;;;;4947500;28;92898;-84
2021/06/02 06:57:25;;;;;;;7.97;7.28;;;17.20;85.80;;;;;;4952096;28;91819;-85
2021/06/02 06:59:53;;;;;;;7.65;6.40;;;17.30;85.90;;;;;;4951797;28;91878;-80
2021/06/02 07:02:19;;;;;;;9.35;5.78;;;17.50;86.30;;;;;;4945715;28;91678;-82
2021/06/02 07:04:46;;;;;;;8.70;6.30;;;17.70;87.00;;;;;;4949320;28;92009;-81
2021/06/02 07:07:14;;;;;;;8.18;7.53;;;17.80;84.80;;;;;;4944624;28;92191;-83
2021/06/02 07:09:40;;;;;;;11.85;7.07;;;17.80;85.20;;;;;;4932108;28;91328;-84
2021/06/02 07:12:07;;;;;;;13.60;8.00;;;17.90;83.40;;;;;;4945096;28;93637;-82
2021/06/02 07:14:36;;;;;;;10.73;7.50;;;18.00;84.40;;;;;;4948387;28;91911;-84
2021/06/02 07:17:06;;;;;;;9.95;6.53;;;18.20;84.30;;;;;;4943263;28;92696;-83
2021/06/02 07:19:40;;;;;;;8.50;7.70;;;18.30;80.40;;;;;;4944157;28;91959;-84
2021/06/02 07:22:06;;;;;;;7.30;6.60;;;18.40;79.00;;;;;;4936917;28;92366;-84
2021/06/02 07:24:33;;;;;;;7.20;6.35;;;18.50;76.90;;;;;;4946704;28;92612;-81
2021/06/02 07:26:59;;;;;;;7.90;7.20;;;18.60;78.60;;;;;;4934143;28;92276;-83
2021/06/02 07:29:25;;;;;;;8.45;7.65;;;18.20;78.20;;;;;;4947341;28;92161;-84
2021/06/02 07:31:52;;;;;;;9.45;8.20;;;19.30;77.50;;;;;;4951660;28;92913;-83
2021/06/02 07:34:21;;;;;;;8.27;7.55;;;18.70;76.50;;;;;;4945965;28;91208;-84
2021/06/02 07:36:49;;;;;;;6.78;6.18;;;19.10;76.60;;;;;;4943545;28;91908;-84
2021/06/02 07:39:15;;;;;;;8.07;6.75;;;19.40;76.00;;;;;;4946869;28;92057;-82
2021/06/02 07:41:40;;;;;;;9.30;7.20;;;19.50;76.60;;;;;;4941126;28;94220;-84
2021/06/02 07:44:06;;;;;;;8.90;7.45;;;19.80;75.60;;;;;;4944822;28;91941;-84
2021/06/02 07:46:34;;;;;;;10.15;9.25;;;20.10;74.30;;;;;;4946130;28;92193;-83
2021/06/02 07:49:01;;;;;;;7.50;6.90;;;20.10;74.30;;;;;;4949959;28;91960;-84
2021/06/02 07:51:26;;;;;;;12.48;8.55;;;20.70;73.40;;;;;;4949285;28;91575;-85
2021/06/02 07:53:52;;;;;;;9.40;8.48;;;20.20;70.90;;;;;;4950222;28;92071;-83
2021/06/02 07:56:18;;;;;;;9.00;8.20;;;;;;;;;;4950065;28;92054;-85
2021/06/02 07:58:44;;;;;;;7.50;6.68;;;20.60;68.40;;;;;;4947827;28;91633;-84
2021/06/02 08:01:09;;;;;;;7.40;6.80;;;20.60;70.60;;;;;;4945646;28;92526;-85
2021/06/02 08:03:35;;;;;;;7.63;6.93;;;20.80;70.00;;;;;;4936698;28;92987;-84
2021/06/02 08:06:01;;;;;;;8.73;7.97;;;;;;;;;;4945412;28;92917;-85
2021/06/02 08:08:27;;;;;;;8.45;7.85;;;;;;;;;;4941805;28;92116;-84
2021/06/02 08:10:53;;;;;;;7.90;7.10;;;21.40;68.30;;;;;;4937702;28;91873;-83
2021/06/02 08:13:19;;;;;;;10.13;9.30;;;22.00;71.10;;;;;;4949567;28;91480;-83
2021/06/02 08:15:44;;;;;;;7.20;6.60;;;21.80;71.40;;;;;;4935692;28;92209;-85
2021/06/02 08:18:10;;;;;;;9.98;7.88;;;21.90;72.30;;;;;;4942957;28;92046;-83
2021/06/02 08:20:36;;;;;;;7.93;7.13;;;22.10;71.90;;;;;;4948011;28;92401;-84
2021/06/02 08:23:02;;;;;;;8.82;8.23;;;22.10;72.00;;;;;;4949108;28;91876;-83
2021/06/02 08:25:28;;;;;;;13.40;9.95;;;;;;;;;;4945264;28;92084;-83
2021/06/02 08:27:54;;;;;;;8.65;7.50;;;22.50;71.10;;;;;;4943383;28;91869;-83
2021/06/02 08:30:20;;;;;;;11.40;9.07;;;22.70;70.90;;;;;;4947334;28;94665;-83
2021/06/02 08:32:46;;;;;;;10.13;9.32;;;22.80;70.10;;;;;;4931590;28;94110;-83
2021/06/02 08:35:15;;;;;;;9.90;9.07;;;22.90;71.20;;;;;;4936112;28;92788;-84
2021/06/02 08:37:41;;;;;;;9.27;8.48;;;22.90;70.20;;;;;;4916451;28;91974;-84
2021/06/02 08:40:08;;;;;;;8.35;7.55;;;23.10;70.10;;;;;;4941507;28;92311;-83
2021/06/02 08:42:34;;;;;;;8.75;7.95;;;23.40;68.40;;;;;;4942138;28;92453;-83
2021/06/02 08:44:59;;;;;;;8.25;7.45;;;23.60;68.90;;;;;;4948706;28;91973;-83
2021/06/02 08:47:25;;;;;;;8.07;7.55;;;24.60;66.70;;;;;;4944795;28;91471;-84
2021/06/02 08:49:51;;;;;;;9.15;8.45;;;23.80;65.80;;;;;;4950899;28;92639;-85
2021/06/02 08:52:17;;;;;;;9.00;8.15;;;24.60;64.30;;;;;;4950173;28;92081;-84
2021/06/02 08:54:42;;;;;;;9.00;8.10;;;24.80;63.80;;;;;;4941850;28;92487;-84
2021/06/02 08:57:10;;;;;;;7.68;6.95;;;25.70;64.20;;;;;;4948392;28;91316;-84
2021/06/02 08:59:36;;;;;;;9.10;8.30;;;25.90;64.40;;;;;;4947419;28;92227;-84
2021/06/02 09:02:04;;;;;;;8.75;7.82;;;25.90;60.50;;;;;;4943489;28;91994;-84
2021/06/02 09:04:32;;;;;;;8.57;7.88;;;;;;;;;;4944416;28;92005;-84
2021/06/02 09:07:04;;;;;;;7.20;6.57;;;26.80;58.00;;;;;;4952610;28;91416;-83
2021/06/02 09:09:30;;;;;;;8.40;7.85;;;;;;;;;;4952028;28;92338;-82
2021/06/02 09:11:56;;;;;;;12.65;8.10;;;;;;;;;;4960021;28;91269;-83
2021/06/02 09:14:22;;;;;;;7.45;6.85;;;;;;;;;;4956910;28;91556;-84
2021/06/02 09:16:54;;;;;;;7.45;6.88;;;31.30;49.30;;;;;;4953832;28;92026;-83
2021/06/02 09:19:42;;;;;;;7.45;6.75;;;32.50;46.50;;;;;;4959199;28;93626;-83
2021/06/02 09:22:11;;;;;;;7.90;5.57;;;32.70;45.60;;;;;;4954556;28;92668;-83
2021/06/02 09:24:56;;;;;;;5.88;5.20;;;34.20;45.40;;;;;;4954973;28;91596;-84
2021/06/02 09:27:43;;;;;;;5.35;4.95;;;35.60;39.50;;;;;;4943299;28;92042;-84
2021/06/02 09:30:11;;;;;;;7.32;6.20;;;36.30;38.60;;;;;;4952235;28;92322;-85
2021/06/02 09:32:49;;;;;;;7.30;5.88;;;37.20;38.90;;;;;;4951158;28;92400;-85
2021/06/02 09:35:16;;;;;;;5.95;5.47;;;37.80;36.10;;;;;;4952832;28;91874;-84
2021/06/02 09:37:56;;;;;;;6.63;6.10;;;38.40;36.40;;;;;;4938974;28;91101;-85
2021/06/02 09:40:25;;;;;;;6.72;6.10;;;39.40;34.70;;;;;;4943609;28;92314;-84
2021/06/02 09:42:51;;;;;;;7.10;6.40;;;39.90;33.10;;;;;;4946251;28;92271;-84
2021/06/02 09:45:17;;;;;;;6.18;5.63;;;39.80;33.30;;;;;;4944825;28;92207;-84
2021/06/02 09:47:53;;;;;;;6.57;5.95;;;40.30;33.70;;;;;;4949235;28;92095;-85
2021/06/02 09:50:28;;;;;;;6.32;5.72;;;41.10;33.00;;;;;;4951371;28;92116;-84
2021/06/02 09:52:55;;;;;;;6.50;5.95;;;41.70;32.50;;;;;;4947464;28;92141;-84
2021/06/02 09:55:30;;;;;;;8.52;7.82;;;42.90;30.80;;;;;;4941164;28;92081;-85
2021/06/02 09:58:10;;;;;;;8.15;7.45;;;43.40;29.90;;;;;;4940692;28;91478;-85
2021/06/02 10:00:39;;;;;;;6.60;6.00;;;43.60;30.00;;;;;;4944169;28;92371;-85
2021/06/02 10:03:12;;;;;;;8.25;7.78;;;43.70;28.70;;;;;;4930776;28;95722;-85
2021/06/02 10:05:49;;;;;;;6.10;5.65;;;43.70;28.90;;;;;;4943780;28;91901;-85
2021/06/02 10:08:32;;;;;;;6.15;5.75;;;43.40;28.80;;;;;;4937108;28;92095;-85
2021/06/02 10:11:12;;;;;;;7.60;7.07;;;43.80;28.90;;;;;;4937280;28;93305;-85
2021/06/02 10:13:39;;;;;;;7.03;6.53;;;44.20;27.60;;;;;;4938274;28;92874;-84
2021/06/02 10:16:06;;;;;;;7.85;7.28;;;44.30;27.60;;;;;;4950486;28;92828;-86
2021/06/02 10:18:37;;;;;;;7.78;7.30;;;44.40;28.10;;;;;;4948380;28;92037;-85
2021/06/02 10:21:08;;;;;;;5.28;4.88;;;44.90;27.80;;;;;;4954954;28;93247;-85
2021/06/02 10:23:36;;;;;;;7.15;6.65;;;44.70;27.50;;;;;;4949005;28;92686;-85
2021/06/02 10:26:04;;;;;;;7.50;6.93;;;45.40;27.50;;;;;;4945287;28;91451;-86
2021/06/02 10:28:30;;;;;;;7.45;6.95;;;45.10;27.90;;;;;;4950615;28;90758;-86
2021/06/02 10:30:57;;;;;;;6.70;6.30;;;45.70;27.30;;;;;;4952375;28;92944;-86
2021/06/02 10:33:22;;;;;;;5.20;4.80;;;46.00;27.00;;;;;;4946432;28;91888;-86
2021/06/02 10:35:48;;;;;;;7.07;6.57;;;46.60;27.30;;;;;;4950796;28;93239;-86
2021/06/02 10:38:15;;;;;;;7.53;6.97;;;46.60;27.00;;;;;;4945250;28;92599;-85
2021/06/02 10:40:43;;;;;;;7.50;6.90;;;45.90;26.80;;;;;;4948551;28;92106;-85
2021/06/02 10:43:25;;;;;;;5.22;4.60;;;45.40;27.10;;;;;;4930871;28;93643;-85
2021/06/02 10:46:01;;;;;;;5.10;4.70;;;45.90;27.00;;;;;;4942271;28;92141;-85
2021/06/02 10:48:45;;;;;;;4.65;4.35;;;46.80;26.50;;;;;;4948030;28;92277;-85
2021/06/02 10:51:25;;;;;;;4.68;4.28;;;46.40;25.80;;;;;;4944780;28;92513;-85
2021/06/02 10:54:12;;;;;;;6.95;6.55;;;44.90;26.50;;;;;;4943486;28;91968;-85
2021/06/02 10:57:00;;;;;;;7.20;6.60;;;45.50;26.40;;;;;;4938000;28;92441;-85
2021/06/02 10:59:30;;;;;;;7.30;6.70;;;45.50;26.60;;;;;;4942991;28;93272;-86
2021/06/02 11:02:15;;;;;;;5.03;4.63;;;45.60;26.90;;;;;;4946119;28;93000;-85
2021/06/02 11:05:04;;;;;;;4.97;4.68;;;46.30;26.30;;;;;;4945697;28;92754;-85
2021/06/02 11:07:33;;;;;;;;;;;47.00;26.00;;;;;;4948409;28;92118;-85
2021/06/02 11:10:05;;;;;;;;;;;47.40;26.30;;;;;;4948229;28;91423;-85
2021/06/02 11:12:48;;;;;;;7.07;6.50;;;47.90;25.50;;;;;;4962006;28;92278;-83
2021/06/02 11:15:33;;;;;;;7.30;6.70;;;48.10;25.40;;;;;;4958558;28;92016;-85
2021/06/02 11:18:16;;;;;;;6.70;6.30;;;48.20;25.80;;;;;;4956536;28;91497;-85
2021/06/02 11:20:54;;;;;;;7.10;6.80;;;48.30;25.50;;;;;;4961844;28;91013;-83
2021/06/02 11:23:22;;;;;;;7.25;6.72;;;48.40;24.50;;;;;;4959425;28;91646;-84
2021/06/02 11:25:48;;;;;;;5.07;4.78;;;48.40;24.80;;;;;;4952049;28;92395;-84
2021/06/02 11:28:41;;;;;;;5.75;5.25;;;48.00;24.80;;;;;;4947091;28;92871;-86
2021/06/02 11:31:20;;;;;;;5.72;5.32;;;48.30;24.50;;;;;;4943572;28;92000;-85
2021/06/02 11:33:45;;;;;;;7.35;6.95;;;48.40;24.80;;;;;;4934990;28;91991;-86
2021/06/02 11:36:12;;;;;;;7.85;7.25;;;48.70;25.10;;;;;;4947922;28;91893;-87
2021/06/02 11:38:39;;;;;;;7.63;7.13;;;49.20;24.10;;;;;;4946916;28;92450;-86
2021/06/02 11:41:06;;;;;;;5.30;4.90;;;49.20;24.50;;;;;;4940702;28;91681;-86
2021/06/02 11:43:33;;;;;;;7.68;7.07;;;48.80;24.40;;;;;;4955503;28;92274;-86
2021/06/02 11:45:59;;;;;;;7.00;6.60;;;48.00;24.80;;;;;;4948508;28;91896;-86
2021/06/02 11:48:29;;;;;;;7.20;6.80;;;47.80;25.10;;;;;;4931410;28;92024;-85
2021/06/02 11:50:57;;;;;;;7.68;7.07;;;47.40;25.10;;;;;;4936353;28;92547;-86
2021/06/02 11:53:23;;;;;;;7.40;6.93;;;47.70;24.20;;;;;;4946594;28;93123;-86
2021/06/02 11:55:50;;;;;;;7.80;7.20;;;47.80;25.40;;;;;;4929007;28;94754;-86
2021/06/02 11:58:15;;;;;;;7.45;7.05;;;47.50;24.50;;;;;;4945172;28;91993;-83
2021/06/02 12:00:42;;;;;;;6.80;6.47;;;47.50;24.80;;;;;;4945581;28;91513;-84
2021/06/02 12:03:10;;;;;;;6.80;6.50;;;46.80;25.00;;;;;;4930090;28;94034;-85
2021/06/02 12:05:40;;;;;;;7.20;6.53;;;45.40;25.20;;;;;;4946570;28;92224;-82
2021/06/02 12:08:10;;;;;;;6.25;5.85;;;44.10;25.20;;;;;;4935357;28;92042;-83
2021/06/02 12:10:42;;;;;;;6.70;6.20;;;43.70;26.30;;;;;;4947552;28;91111;-84
2021/06/02 12:13:30;;;;;;;6.50;6.00;;;43.20;25.70;;;;;;4940382;28;92296;-84
2021/06/02 12:15:58;;;;;;;4.63;4.20;;;43.00;26.10;;;;;;4939316;28;92053;-84
2021/06/02 12:18:46;;;;;;;6.13;5.60;;;42.70;26.60;;;;;;4948859;28;92745;-81
2021/06/02 12:21:22;;;;;;;5.90;5.60;;;42.00;26.40;;;;;;4940366;28;92143;-80
2021/06/02 12:24:06;;;;;;;6.57;6.13;;;42.00;27.00;;;;;;4943637;28;92930;-79
2021/06/02 12:26:41;;;;;;;4.10;3.80;;;42.70;27.00;;;;;;4948962;28;91685;-85
2021/06/02 12:29:10;;;;;;;6.03;5.72;;;43.40;27.00;;;;;;4942245;28;91945;-82
2021/06/02 12:31:41;;;;;;;;;;;43.10;26.90;;;;;;4950494;28;91892;-83
2021/06/02 12:34:10;;;;;;;4.20;3.90;;;42.40;27.00;;;;;;4948221;28;92744;-82
2021/06/02 12:36:42;;;;;;;6.35;5.95;;;41.20;27.50;;;;;;4949171;28;91607;-83
2021/06/02 12:39:10;;;;;;;5.68;5.38;;;40.70;27.80;;;;;;4945160;28;92316;-85
2021/06/02 12:41:37;;;;;;;6.20;5.80;;;40.60;28.70;;;;;;4945225;28;92073;-84
2021/06/02 12:44:04;;;;;;;6.90;6.40;;;41.00;28.30;;;;;;4946399;28;93376;-84
2021/06/02 12:46:32;;;;;;;6.10;5.60;;;41.50;27.80;;;;;;4941316;28;93015;-84
2021/06/02 12:48:58;;;;;;;5.68;5.38;;;42.00;27.60;;;;;;4945355;28;92107;-84
2021/06/02 12:51:25;;;;;;;5.80;5.50;;;42.00;26.40;;;;;;4952012;28;92006;-84
2021/06/02 12:53:52;;;;;;;6.13;5.72;;;42.00;26.20;;;;;;4927566;28;93654;-84
2021/06/02 12:56:20;;;;;;;5.75;5.43;;;42.10;26.70;;;;;;4939530;28;92022;-82
2021/06/02 12:58:57;;;;;;;6.00;5.60;;;42.70;26.40;;;;;;4947392;28;91980;-83
2021/06/02 13:01:30;;;;;;;6.13;5.50;;;42.70;26.50;;;;;;4941549;28;91070;-84
2021/06/02 13:03:58;;;;;;;5.95;5.55;;;42.30;26.10;;;;;;4941557;28;91628;-83
2021/06/02 13:06:29;;;;;;;5.65;5.20;;;41.90;26.40;;;;;;4936714;28;92224;-83
2021/06/02 13:08:55;;;;;;;5.75;5.35;;;41.50;26.60;;;;;;4934667;28;92939;-84
2021/06/02 13:11:28;;;;;;;5.68;5.22;;;40.70;26.90;;;;;;4946679;28;91956;-82
2021/06/02 13:13:55;;;;;;;5.80;5.30;;;39.90;27.60;;;;;;4943342;28;93219;-83
2021/06/02 13:16:21;;;;;;;5.20;4.90;;;38.70;27.10;;;;;;4938285;28;92869;-82
2021/06/02 13:19:06;;;;;;;6.07;5.68;;;37.90;28.10;;;;;;4949449;28;92265;-83
2021/06/02 13:21:34;;;;;;;5.15;4.85;;;37.10;28.90;;;;;;4940774;28;92031;-82
2021/06/02 13:24:24;;;;;;;5.55;5.03;;;36.30;28.80;;;;;;4943995;28;92701;-83
2021/06/02 13:26:54;;;;;;;4.90;4.60;;;35.70;30.00;;;;;;4942736;28;91991;-84
2021/06/02 13:29:21;;;;;;;5.18;4.78;;;35.10;29.70;;;;;;4943418;28;92204;-81
2021/06/02 13:31:49;;;;;;;4.97;4.57;;;34.90;30.00;;;;;;4951602;28;91532;-85
2021/06/02 13:34:34;;;;;;;4.85;4.47;;;34.60;30.10;;;;;;4953383;28;92801;-83
2021/06/02 13:37:13;;;;;;;5.00;4.60;;;34.40;29.60;;;;;;4932528;28;92212;-82
2021/06/02 13:39:39;;;;;;;4.50;4.30;;;34.10;29.90;;;;;;4933792;28;92500;-81
2021/06/02 13:42:08;;;;;;;4.65;4.40;;;34.00;29.20;;;;;;4942478;28;92054;-82
2021/06/02 13:44:34;;;;;;;4.72;4.53;;;34.10;29.80;;;;;;4940548;28;92322;-83
2021/06/02 13:47:00;;;;;;;4.38;4.18;;;34.10;30.10;;;;;;4937472;28;92120;-82
2021/06/02 13:49:36;;;;;;;4.80;4.50;;;34.60;30.00;;;;;;4945538;28;91917;-82
2021/06/02 13:52:04;;;;;;;4.63;4.43;;;35.20;30.00;;;;;;4942604;28;91523;-84
2021/06/02 13:54:32;;;;;;;4.95;4.65;;;35.90;30.10;;;;;;4936015;28;91883;-84
2021/06/02 13:57:06;;;;;;;4.78;4.47;;;36.60;28.70;;;;;;4941117;28;92031;-83
2021/06/02 13:59:34;;;;;;;4.93;4.30;;;37.30;28.50;;;;;;4925317;28;93102;-83
2021/06/02 14:02:02;;;;;;;4.75;4.45;;;37.20;27.70;;;;;;4944333;28;91900;-82
2021/06/02 14:04:28;;;;;;;4.82;4.40;;;36.80;27.90;;;;;;4940791;28;92144;-83
2021/06/02 14:06:59;;;;;;;4.80;4.22;;;36.40;28.00;;;;;;4946095;28;92277;-82
2021/06/02 14:09:25;;;;;;;4.45;4.22;;;36.10;27.80;;;;;;4947505;28;91843;-83
2021/06/02 14:11:51;;;;;;;4.28;3.97;;;35.70;28.00;;;;;;4938653;28;92025;-82
2021/06/02 14:14:17;;;;;;;4.30;4.00;;;35.10;28.00;;;;;;4940557;28;93528;-83
2021/06/02 14:16:44;;;;;;;4.80;4.50;;;34.50;28.50;;;;;;4934756;28;91798;-84
2021/06/02 14:19:10;;;;;;;4.30;3.90;;;34.00;28.70;;;;;;4940292;28;91605;-82
2021/06/02 14:21:37;;;;;;;4.80;4.40;;;33.70;29.40;;;;;;4942560;28;91957;-83
2021/06/02 14:24:05;;;;;;;4.40;4.10;;;33.30;29.20;;;;;;4923200;28;97001;-83
2021/06/02 14:26:34;;;;;;;4.53;4.20;;;32.90;29.80;;;;;;4941547;28;93106;-83
2021/06/02 14:29:00;;;;;;;4.53;4.13;;;32.60;30.00;;;;;;4946659;28;92045;-83
2021/06/02 14:31:26;;;;;;;4.40;4.00;;;32.30;29.60;;;;;;4940165;28;92312;-83
2021/06/02 14:33:51;;;;;;;4.18;3.92;;;32.10;30.70;;;;;;4942690;28;93239;-84
2021/06/02 14:36:17;;;;;;;4.47;4.13;;;32.00;30.80;;;;;;4936112;28;92308;-84
2021/06/02 14:38:43;;;;;;;4.60;4.20;;;31.70;31.10;;;;;;4933940;28;92050;-84
2021/06/02 14:41:09;;;;;;;4.40;4.20;;;31.50;31.70;;;;;;4935776;28;91305;-84
2021/06/02 14:43:35;;;;;;;4.40;4.20;;;31.20;31.20;;;;;;4941390;28;92037;-83
2021/06/02 14:46:03;;;;;;;4.70;4.45;;;31.00;31.20;;;;;;4952363;28;92984;-84
2021/06/02 14:48:30;;;;;;;4.50;4.20;;;30.80;31.60;;;;;;4937556;28;93364;-82
2021/06/02 14:50:55;;;;;;;4.25;3.88;;;30.40;31.50;;;;;;4940611;28;91753;-82
2021/06/02 14:53:21;;;;;;;4.10;3.90;;;30.10;31.80;;;;;;4951136;28;92625;-84
2021/06/02 14:55:47;;;;;;;4.55;4.25;;;29.80;31.70;;;;;;4940569;28;92160;-83
2021/06/02 14:58:13;;;;;;;4.68;4.28;;;29.40;32.50;;;;;;4951567;28;91988;-85
2021/06/02 15:00:39;;;;;;;4.53;4.13;;;29.20;32.60;;;;;;4944813;28;92195;-83
2021/06/02 15:03:06;;;;;;;4.10;3.80;;;29.10;33.50;;;;;;4942827;28;92750;-85
2021/06/02 15:05:33;;;;;;;4.05;3.75;;;29.00;32.30;;;;;;4941961;28;91910;-82
2021/06/02 15:08:00;;;;;;;4.60;3.90;;;28.90;32.30;;;;;;4945812;28;91690;-85
2021/06/02 15:10:25;;;;;;;3.97;3.78;;;28.80;33.10;;;;;;4944613;28;92121;-85
2021/06/02 15:12:53;;;;;;;4.18;3.90;;;28.80;33.70;;;;;;4935272;28;92968;-85
2021/06/02 15:15:20;;;;;;;4.30;4.00;;;28.80;33.40;;;;;;4940004;28;93038;-85
2021/06/02 15:17:46;;;;;;;4.85;4.10;;;28.90;34.40;;;;;;4939074;28;91529;-83
2021/06/02 15:20:15;;;;;;;4.00;3.70;;;29.00;33.60;;;;;;4945923;28;91922;-82
2021/06/02 15:22:41;;;;;;;3.90;3.70;;;29.10;33.60;;;;;;4939968;28;92050;-84
2021/06/02 15:25:07;;;;;;;4.38;3.97;;;29.20;33.60;;;;;;4939858;28;91790;-85
2021/06/02 15:27:34;;;;;;;4.57;4.28;;;29.20;34.00;;;;;;4950943;28;92049;-82
2021/06/02 15:30:01;;;;;;;4.10;3.80;;;29.30;34.70;;;;;;4949384;28;91165;-83
2021/06/02 15:32:29;;;;;;;4.35;3.95;;;29.70;36.20;;;;;;4942491;28;92003;-82
2021/06/02 15:34:57;;;;;;;4.40;4.00;;;29.70;36.90;;;;;;4951362;28;91959;-80
2021/06/02 15:37:27;;;;;;;4.45;4.00;;;30.10;35.10;;;;;;4950180;28;92543;-82
2021/06/02 15:39:53;;;;;;;4.70;4.25;;;30.30;34.10;;;;;;4951042;28;92153;-82
2021/06/02 15:42:20;;;;;;;4.55;4.18;;;30.50;34.40;;;;;;4952864;28;92240;-83
2021/06/02 15:44:48;;;;;;;4.20;3.90;;;30.80;34.40;;;;;;4950924;28;92418;-84
2021/06/02 15:47:14;;;;;;;4.40;4.00;;;30.90;33.50;;;;;;4950933;28;92105;-83
2021/06/02 15:49:40;;;;;;;4.55;4.25;;;31.10;33.70;;;;;;4942052;28;92471;-84
2021/06/02 15:52:08;;;;;;;4.18;3.97;;;31.20;32.60;;;;;;4949970;28;92652;-84
2021/06/02 15:54:36;;;;;;;4.75;3.90;;;31.10;32.20;;;;;;4951608;28;92966;-84
2021/06/02 15:57:05;;;;;;;4.20;3.90;;;30.90;32.80;;;;;;4943828;28;92037;-83
2021/06/02 15:59:32;;;;;;;3.97;3.70;;;30.90;31.70;;;;;;4938107;28;92164;-82
2021/06/02 16:01:58;;;;;;;4.43;4.13;;;30.80;34.40;;;;;;4944798;28;93363;-84
2021/06/02 16:04:24;;;;;;;4.15;3.85;;;30.70;33.20;;;;;;4944251;28;93397;-81
2021/06/02 16:06:50;;;;;;;3.90;3.70;;;30.60;31.80;;;;;;4944864;28;92040;-85
2021/06/02 16:09:16;;;;;;;4.40;4.07;;;30.50;33.00;;;;;;4949433;28;92067;-84